createdAt,value
2018-09-06T00:01:39.799Z,13.30
2018-09-06T00:06:44.019Z,11.47
2018-09-06T00:11:48.284Z,11.00
2018-09-06T00:16:52.452Z,11.73
2018-09-06T00:21:56.647Z,10.97
2018-09-06T00:27:00.857Z,11.53
2018-09-06T00:32:05.031Z,11.77
2018-09-06T00:37:09.195Z,12.77
2018-09-06T00:42:13.401Z,16.30
2018-09-06T00:47:17.640Z,16.63
2018-09-06T00:52:21.872Z,16.50
2018-09-06T00:57:26.192Z,14.50
2018-09-06T01:02:30.486Z,16.43
2018-09-06T01:07:34.639Z,15.60
2018-09-06T01:12:38.912Z,16.40
2018-09-06T01:17:43.265Z,16.07
2018-09-06T01:22:47.480Z,16.07
2018-09-06T01:27:51.700Z,16.17
2018-09-06T01:32:55.907Z,15.50
2018-09-06T01:38:00.072Z,13.63
2018-09-06T01:43:04.245Z,13.73
2018-09-06T01:48:08.433Z,15.30
2018-09-06T01:53:12.630Z,15.67
2018-09-06T01:58:16.891Z,14.67
2018-09-06T02:03:21.018Z,14.70
2018-09-06T02:08:25.274Z,15.00
2018-09-06T02:13:29.456Z,15.53
2018-09-06T02:18:33.918Z,14.40
2018-09-06T02:23:38.137Z,14.93
2018-09-06T02:28:42.372Z,14.53
2018-09-06T02:33:47.414Z,13.80
2018-09-06T02:38:51.640Z,14.13
2018-09-06T02:43:55.855Z,12.13
2018-09-06T02:49:00.003Z,11.53
2018-09-06T02:54:04.162Z,10.27
2018-09-06T02:59:08.351Z,9.90
2018-09-06T03:04:12.557Z,10.70
2018-09-06T03:09:16.847Z,10.30
2018-09-06T03:14:21.122Z,11.07
2018-09-06T03:19:25.328Z,9.37
2018-09-06T03:24:29.514Z,10.60
2018-09-06T03:29:33.680Z,10.30
2018-09-06T03:34:37.880Z,10.37
2018-09-06T03:39:42.050Z,8.80
2018-09-06T03:44:46.248Z,9.77
2018-09-06T03:49:50.742Z,9.93
2018-09-06T03:54:54.967Z,9.03
2018-09-06T03:59:59.144Z,10.07
2018-09-06T04:05:03.311Z,10.83
2018-09-06T04:10:07.526Z,10.70
2018-09-06T04:15:11.732Z,10.97
2018-09-06T04:20:15.944Z,10.20
2018-09-06T04:25:20.281Z,10.47
2018-09-06T04:30:24.823Z,11.20
2018-09-06T04:35:29.011Z,11.27
2018-09-06T04:40:33.238Z,11.30
2018-09-06T04:45:37.440Z,10.60
2018-09-06T04:50:41.949Z,11.60
2018-09-06T04:55:46.110Z,11.63
2018-09-06T05:00:50.609Z,10.77
2018-09-06T05:05:54.768Z,11.20
2018-09-06T05:11:06.019Z,12.10
2018-09-06T05:16:10.166Z,11.87
2018-09-06T05:21:14.340Z,12.83
2018-09-06T05:26:18.494Z,13.17
2018-09-06T05:31:22.671Z,13.80
2018-09-06T05:36:26.850Z,14.33
2018-09-06T05:41:31.034Z,13.70
2018-09-06T05:46:35.268Z,13.93
2018-09-06T05:51:39.449Z,14.67
2018-09-06T05:56:43.658Z,14.47
2018-09-06T06:01:47.823Z,14.30
2018-09-06T06:06:52.005Z,13.40
2018-09-06T06:11:56.341Z,14.10
2018-09-06T06:17:00.787Z,13.47
2018-09-06T06:22:04.936Z,12.93
2018-09-06T06:27:09.097Z,12.30
2018-09-06T06:32:13.335Z,13.27
2018-09-06T06:37:17.504Z,13.30
2018-09-06T06:42:21.768Z,13.57
2018-09-06T06:47:26.678Z,13.47
2018-09-06T06:52:30.835Z,13.33
2018-09-06T06:57:35.020Z,14.73
2018-09-06T07:02:39.194Z,14.23
2018-09-06T07:07:43.375Z,14.47
2018-09-06T07:12:47.528Z,15.10
2018-09-06T07:17:51.793Z,13.83
2018-09-06T07:22:55.923Z,14.43
2018-09-06T07:28:00.124Z,14.57
2018-09-06T07:33:04.335Z,15.63
2018-09-06T07:38:08.486Z,15.57
2018-09-06T07:43:12.612Z,15.40
2018-09-06T07:48:16.894Z,15.67
2018-09-06T07:53:21.182Z,14.60
2018-09-06T07:58:25.417Z,15.37
2018-09-06T08:03:29.718Z,15.20
2018-09-06T08:08:33.859Z,16.57
2018-09-06T08:13:38.033Z,16.20
2018-09-06T08:18:42.283Z,16.43
2018-09-06T08:23:46.467Z,16.47
2018-09-06T08:28:51.126Z,15.27
2018-09-06T08:33:55.392Z,14.73
2018-09-06T08:38:59.562Z,15.83
2018-09-06T08:44:03.752Z,15.73
2018-09-06T08:49:07.964Z,16.07
2018-09-06T08:54:12.127Z,16.10
2018-09-06T08:59:16.336Z,15.70
2018-09-06T09:04:20.699Z,16.20
2018-09-06T09:09:24.906Z,16.03
2018-09-06T09:14:29.055Z,15.33
2018-09-06T09:19:33.289Z,17.17
2018-09-06T09:24:37.506Z,14.63
2018-09-06T09:29:41.743Z,16.03
2018-09-06T09:34:45.972Z,14.23
2018-09-06T09:39:50.650Z,15.20
2018-09-06T09:44:55.271Z,14.07
2018-09-06T09:50:02.429Z,14.83
2018-09-06T09:55:06.580Z,15.40
2018-09-06T10:00:10.856Z,16.50
2018-09-06T10:05:20.402Z,18.83
2018-09-06T10:10:24.730Z,20.23
2018-09-06T10:15:29.011Z,18.73
2018-09-06T10:20:33.321Z,18.53
2018-09-06T10:25:37.534Z,20.77
2018-09-06T10:30:41.735Z,19.73
2018-09-06T10:35:46.026Z,19.20
2018-09-06T10:40:50.206Z,19.50
2018-09-06T10:45:54.431Z,19.60
2018-09-06T10:50:58.680Z,20.23
2018-09-06T10:56:02.887Z,19.83
2018-09-06T11:01:12.472Z,17.87
2018-09-06T11:06:16.873Z,18.93
2018-09-06T11:11:21.125Z,16.47
2018-09-06T11:16:25.367Z,17.17
2018-09-06T11:21:30.009Z,19.30
2018-09-06T11:26:34.115Z,17.60
2018-09-06T11:31:38.659Z,16.07
2018-09-06T11:36:42.884Z,14.67
2018-09-06T11:41:47.173Z,14.50
2018-09-06T11:46:51.606Z,12.83
2018-09-06T11:52:02.600Z,13.10
2018-09-06T11:57:06.749Z,14.20
2018-09-06T12:02:10.925Z,14.20
2018-09-06T12:07:15.198Z,13.93
2018-09-06T12:12:19.376Z,17.23
2018-09-06T12:17:23.606Z,13.97
2018-09-06T12:22:27.875Z,14.87
2018-09-06T12:27:32.141Z,14.77
2018-09-06T12:32:36.437Z,14.13
2018-09-06T12:37:40.656Z,14.33
2018-09-06T12:42:44.977Z,14.37
2018-09-06T12:47:49.242Z,14.93
2018-09-06T12:52:53.492Z,13.67
2018-09-06T12:57:57.716Z,14.30
2018-09-06T13:03:02.030Z,15.03
2018-09-06T13:08:06.184Z,14.23
2018-09-06T13:13:10.322Z,14.03
2018-09-06T13:18:14.506Z,14.87
2018-09-06T13:23:18.700Z,16.27
2018-09-06T13:28:23.018Z,15.07
2018-09-06T13:33:27.259Z,15.67
2018-09-06T13:38:31.500Z,14.73
2018-09-06T13:43:35.716Z,15.40
2018-09-06T13:48:39.934Z,14.33
2018-09-06T13:53:44.099Z,13.67
2018-09-06T13:58:48.287Z,12.40
2018-09-06T14:03:52.527Z,14.77
2018-09-06T14:08:56.708Z,14.60
2018-09-06T14:14:00.881Z,14.83
2018-09-06T14:19:05.126Z,15.33
2018-09-06T14:24:09.327Z,12.50
2018-09-06T14:29:13.536Z,12.53
2018-09-06T14:34:17.714Z,14.00
2018-09-06T14:39:28.775Z,13.57
2018-09-06T14:44:33.095Z,12.87
2018-09-06T14:49:37.361Z,13.43
2018-09-06T14:54:41.661Z,12.40
2018-09-06T15:04:55.253Z,12.67
2018-09-06T15:09:59.419Z,15.27
2018-09-06T15:15:03.718Z,10.23
2018-09-06T15:20:08.084Z,7.17
2018-09-06T15:25:12.222Z,5.20
2018-09-06T15:30:16.408Z,4.10
2018-09-06T15:35:20.611Z,4.53
2018-09-06T15:40:24.792Z,4.80
2018-09-06T15:45:28.994Z,5.57
2018-09-06T15:50:33.194Z,5.30
2018-09-06T15:55:37.434Z,5.57
2018-09-06T16:00:41.612Z,6.03
2018-09-06T16:05:45.797Z,5.63
2018-09-06T16:10:49.980Z,6.57
2018-09-06T16:15:54.519Z,6.60
2018-09-06T16:20:58.723Z,6.60
2018-09-06T16:26:02.948Z,6.90
2018-09-06T16:31:07.096Z,7.40
2018-09-06T16:36:11.269Z,6.80
2018-09-06T16:41:15.533Z,7.73
2018-09-06T16:46:19.736Z,7.20
2018-09-06T16:51:23.973Z,6.70
2018-09-06T16:56:28.157Z,8.60
2018-09-06T17:01:32.337Z,8.37
2018-09-06T17:06:36.577Z,9.97
2018-09-06T17:11:40.812Z,10.10
2018-09-06T17:16:45.139Z,9.60
2018-09-06T17:21:49.333Z,9.93
2018-09-06T17:26:53.575Z,9.70
2018-09-06T17:31:57.744Z,9.17
2018-09-06T17:37:01.940Z,9.97
2018-09-06T17:42:06.546Z,10.63
2018-09-06T17:47:10.750Z,9.57
2018-09-06T17:52:14.972Z,8.47
2018-09-06T17:57:19.206Z,10.27
2018-09-06T18:02:23.443Z,8.27
2018-09-06T18:07:28.217Z,9.37
2018-09-06T18:12:32.610Z,9.33
2018-09-06T18:17:37.004Z,7.33
2018-09-06T18:22:42.040Z,6.57
2018-09-06T18:27:46.385Z,6.17
2018-09-06T18:32:50.715Z,5.93
2018-09-06T18:37:55.456Z,4.30
2018-09-06T18:42:59.725Z,3.90
2018-09-06T18:48:04.154Z,3.67
2018-09-06T18:53:08.375Z,3.53
2018-09-06T18:58:12.797Z,3.17
2018-09-06T19:03:16.957Z,3.03
2018-09-06T19:08:21.619Z,2.83
2018-09-06T19:13:25.883Z,2.93
2018-09-06T19:18:30.131Z,2.73
2018-09-06T19:23:35.061Z,2.50
2018-09-06T19:28:39.291Z,2.37
2018-09-06T19:33:43.487Z,2.23
2018-09-06T19:38:48.787Z,2.53
2018-09-06T19:43:53.425Z,2.53
2018-09-06T19:48:59.917Z,2.53
2018-09-06T19:54:05.704Z,2.43
2018-09-06T19:59:10.277Z,2.97
2018-09-06T20:04:15.433Z,2.40
2018-09-06T20:09:26.468Z,3.00
2018-09-06T20:14:31.497Z,3.70
2018-09-06T20:19:35.863Z,3.57
2018-09-06T20:24:40.107Z,4.03
2018-09-06T20:29:44.521Z,3.27
2018-09-06T20:34:48.723Z,3.60
2018-09-06T20:39:52.952Z,3.43
2018-09-06T20:44:57.222Z,3.93
2018-09-06T20:50:01.653Z,3.13
2018-09-06T20:55:05.841Z,3.07
2018-09-06T21:00:10.057Z,3.73
2018-09-06T21:05:14.266Z,3.53
2018-09-06T21:10:18.565Z,3.87
2018-09-06T21:15:22.728Z,4.03
2018-09-06T21:20:27.037Z,4.30
2018-09-06T21:25:31.249Z,4.27
2018-09-06T21:30:35.409Z,4.00
2018-09-06T21:35:39.596Z,4.00
2018-09-06T21:40:46.608Z,4.07
2018-09-06T21:45:50.800Z,3.77
2018-09-06T21:50:55.014Z,4.10
2018-09-06T21:55:59.256Z,3.70
2018-09-06T22:01:03.462Z,4.33
2018-09-06T22:06:07.656Z,4.60
2018-09-06T22:11:11.822Z,4.70
2018-09-06T22:16:16.095Z,4.93
2018-09-06T22:21:20.289Z,5.20
2018-09-06T22:26:24.478Z,4.33
2018-09-06T22:31:28.675Z,5.20
2018-09-06T22:36:32.925Z,5.20
2018-09-06T22:41:37.179Z,5.17
2018-09-06T22:46:41.393Z,5.30
2018-09-06T22:51:45.550Z,5.37
2018-09-06T22:56:49.823Z,5.53
2018-09-06T23:01:54.124Z,4.43
2018-09-06T23:06:58.374Z,5.17
2018-09-06T23:12:02.537Z,5.80
2018-09-06T23:17:06.652Z,5.90
2018-09-06T23:22:10.837Z,5.60
2018-09-06T23:27:15.013Z,5.67
2018-09-06T23:32:19.193Z,5.67
2018-09-06T23:37:23.405Z,5.20
2018-09-06T23:42:27.611Z,4.50
2018-09-06T23:47:31.886Z,5.47
2018-09-06T23:52:36.115Z,4.47
2018-09-06T23:57:40.291Z,5.67
